Time;durP1;ratioP1;P1;durP2;ratioP2;P2;SDS_P1;SDS_P2;PMS_P1;PMS_P2;Temp;Humidity;BMP_temperature;BMP_pressure;BME280_temperature;BME280_humidity;BME280_pressure;Samples;Min_cycle;Max_cycle;Signal;HPM_P1;HPM_P2
2021/12/01 00:00:12;;;;;;;0.40;0.20;;;4.10;1.40;;;4.51;100.00;94907.52;646355;216;31514;-76
2021/12/01 00:02:53;;;;;;;0.40;0.20;;;4.10;1.40;;;4.45;100.00;94878.39;646299;212;32100;-76
2021/12/01 00:05:35;;;;;;;0.40;0.20;;;4.00;1.40;;;4.45;100.00;94876.73;639043;212;31653;-76
2021/12/01 00:08:16;;;;;;;0.62;0.28;;;4.00;1.40;;;4.43;100.00;94873.36;645633;216;31521;-75
2021/12/01 00:11:01;;;;;;;0.40;0.20;;;3.90;1.40;;;4.37;100.00;94865.84;647054;216;31802;-76
2021/12/01 00:13:43;;;;;;;0.40;0.20;;;3.90;1.40;;;4.33;100.00;94875.31;619669;222;32083;-76
2021/12/01 00:16:26;;;;;;;0.40;0.20;;;3.70;1.40;;;4.24;100.00;94864.45;647460;216;31587;-74
2021/12/01 00:19:14;;;;;;;0.40;0.20;;;3.70;1.40;;;4.25;100.00;94845.30;645078;216;32140;-76
2021/12/01 00:21:56;;;;;;;0.40;0.20;;;3.80;1.40;;;4.28;100.00;94869.66;618895;226;31932;-76
2021/12/01 00:27:12;;;;;;;0.40;0.20;;;3.90;1.40;;;4.37;100.00;94829.08;647876;216;31459;-75
2021/12/01 00:29:57;;;;;;;0.40;0.20;;;4.00;1.40;;;4.34;100.00;94829.75;645777;216;31466;-75
2021/12/01 00:32:39;;;;;;;0.40;0.20;;;3.90;1.40;;;4.39;100.00;94833.03;647590;216;31493;-75
2021/12/01 00:35:52;;;;;;;0.40;0.22;;;4.00;1.40;;;4.46;100.00;94821.57;648161;216;31513;-75
2021/12/01 00:38:35;;;;;;;0.40;0.20;;;4.00;1.40;;;4.46;100.00;94847.63;646895;216;31512;-73
2021/12/01 00:41:23;;;;;;;0.40;0.20;;;4.20;1.40;;;4.47;100.00;94832.52;646714;216;31506;-74
2021/12/01 00:44:07;;;;;;;0.40;0.20;;;4.10;1.40;;;4.55;100.00;94840.48;619884;226;31815;-76
2021/12/01 00:49:43;;;;;;;0.40;0.20;;;4.30;1.40;;;4.64;100.00;94836.02;615244;225;31823;-75
2021/12/01 00:52:26;;;;;;;0.50;0.20;;;4.40;1.40;;;4.70;100.00;94827.61;647585;216;31509;-75
2021/12/01 00:55:09;;;;;;;0.40;0.20;;;4.40;1.40;;;4.82;100.00;94815.09;620789;226;32415;-75
2021/12/01 00:57:51;;;;;;;0.40;0.20;;;4.50;1.40;;;4.88;100.00;94828.38;620002;222;31837;-75
2021/12/01 01:00:35;;;;;;;0.40;0.20;;;4.70;1.40;;;4.82;100.00;94804.19;619175;223;42502;-74
2021/12/01 01:03:17;;;;;;;0.40;0.20;;;4.50;1.40;;;4.92;100.00;94812.44;645970;216;31589;-75
2021/12/01 01:05:59;;;;;;;0.40;0.20;;;4.60;1.40;;;5.01;100.00;94827.12;647136;212;31961;-76
2021/12/01 01:08:42;;;;;;;0.40;0.20;;;4.80;1.40;;;4.97;100.00;94817.43;645236;212;31780;-75
2021/12/01 01:16:58;;;;;;;0.40;0.20;;;4.70;1.40;;;5.06;100.00;94829.07;646317;212;31528;-75
2021/12/01 01:19:40;;;;;;;0.40;0.20;;;4.80;1.40;;;5.10;100.00;94827.95;648186;212;31478;-75
2021/12/01 01:22:25;;;;;;;0.40;0.20;;;4.80;1.40;;;5.17;100.00;94819.13;646471;213;31482;-75
2021/12/01 01:25:08;;;;;;;0.40;0.20;;;4.80;1.40;;;5.22;100.00;94799.96;647711;212;42119;-74
2021/12/01 01:27:52;;;;;;;0.40;0.20;;;4.80;1.40;;;5.20;100.00;94780.30;647797;216;31492;-75
2021/12/01 01:30:34;;;;;;;0.40;0.20;;;4.80;1.40;;;5.28;100.00;94820.20;646084;212;31721;-75
2021/12/01 01:35:52;;;;;;;0.40;0.20;;;5.00;1.40;;;5.38;100.00;94802.34;618680;225;31844;-75
2021/12/01 01:38:32;;;;;;;0.40;0.20;;;5.00;1.40;;;5.38;100.00;94780.20;618794;226;31841;-75
2021/12/01 01:41:17;;;;;;;0.40;0.20;;;5.00;1.40;;;5.32;100.00;94774.53;619800;226;32522;-74
2021/12/01 01:43:59;;;;;;;0.40;0.20;;;4.80;1.40;;;5.32;100.00;94763.34;646911;212;31574;-75
2021/12/01 01:46:43;;;;;;;0.40;0.20;;;4.90;1.40;;;5.36;100.00;94785.66;619073;226;31919;-75
2021/12/01 01:52:28;;;;;;;0.40;0.20;;;4.90;1.40;;;5.34;100.00;94773.53;646514;216;31473;-75
2021/12/01 01:55:09;;;;;;;0.40;0.20;;;4.80;1.40;;;5.32;100.00;94768.18;646511;212;32118;-75
2021/12/01 01:57:50;;;;;;;0.40;0.20;;;4.90;1.40;;;5.36;100.00;94755.13;646515;216;31464;-75
2021/12/01 02:00:43;;;;;;;0.40;0.20;;;4.90;1.40;;;5.29;100.00;94748.98;647748;216;31478;-74
2021/12/01 02:03:17;;;;;;;0.50;0.30;;;4.80;1.40;;;5.37;100.00;94753.82;646760;216;31540;-75
2021/12/01 02:06:01;;;;;;;0.40;0.20;;;4.90;1.40;;;5.39;100.00;94775.19;636111;216;31643;-75
2021/12/01 02:08:44;;;;;;;0.40;0.20;;;5.00;1.40;;;5.44;100.00;94746.92;646393;216;31500;-75
2021/12/01 02:11:25;;;;;;;0.40;0.20;;;5.00;1.40;;;5.43;100.00;94760.43;646989;212;31567;-76
2021/12/01 02:14:08;;;;;;;0.40;0.30;;;5.00;1.40;;;5.48;100.00;94761.34;646901;216;32235;-76
2021/12/01 02:16:50;;;;;;;0.40;0.30;;;5.00;1.40;;;5.51;100.00;94752.64;647636;216;31477;-75
2021/12/01 02:19:31;;;;;;;0.40;0.20;;;5.00;1.40;;;5.37;100.00;94741.78;646177;213;31498;-75
2021/12/01 02:22:13;;;;;;;0.40;0.20;;;4.80;1.40;;;5.40;100.00;94735.53;646178;212;32202;-75
2021/12/01 02:24:55;;;;;;;0.40;0.20;;;4.90;1.40;;;5.45;100.00;94720.69;647326;212;31464;-76
2021/12/01 02:27:40;;;;;;;0.45;0.30;;;4.90;1.40;;;5.47;100.00;94726.46;647614;212;42085;-75
2021/12/01 02:30:23;;;;;;;0.40;0.20;;;4.90;1.40;;;5.42;100.00;94715.19;646005;216;31526;-75
2021/12/01 02:35:51;;;;;;;0.40;0.20;;;4.80;1.40;;;5.43;100.00;94715.76;619693;222;31890;-75
2021/12/01 02:38:33;;;;;;;0.40;0.20;;;5.00;1.40;;;5.43;100.00;94707.53;619370;226;31849;-75
2021/12/01 02:41:14;;;;;;;0.40;0.20;;;4.90;1.40;;;5.31;100.00;94696.94;647109;216;31547;-75
2021/12/01 02:43:56;;;;;;;0.40;0.20;;;4.80;1.40;;;5.48;100.00;94684.36;646882;216;31518;-75
2021/12/01 02:46:38;;;;;;;0.40;0.20;;;4.90;1.40;;;5.42;100.00;94684.27;646999;216;31608;-76
2021/12/01 02:49:20;;;;;;;0.40;0.20;;;4.90;1.40;;;5.41;100.00;94690.16;647717;216;31612;-75
2021/12/01 02:52:01;;;;;;;0.40;0.20;;;4.90;1.40;;;5.41;100.00;94683.59;646117;216;31796;-75
2021/12/01 02:54:46;;;;;;;0.40;0.20;;;4.90;1.40;;;5.42;100.00;94684.12;647155;216;31503;-75
2021/12/01 02:57:28;;;;;;;0.40;0.20;;;4.90;1.40;;;5.50;100.00;94667.77;631033;222;31633;-75
2021/12/01 03:00:14;;;;;;;0.40;0.20;;;5.00;1.40;;;5.53;100.00;94670.62;646111;216;31540;-75
2021/12/01 03:02:56;;;;;;;0.40;0.20;;;5.00;1.40;;;5.50;100.00;94669.21;647212;212;31494;-75
2021/12/01 03:05:40;;;;;;;0.40;0.20;;;5.00;1.40;;;5.53;100.00;94663.80;646824;212;31517;-75
2021/12/01 03:08:22;;;;;;;0.40;0.20;;;5.00;1.40;;;5.55;100.00;94658.70;645283;212;32077;-75
2021/12/01 03:11:03;;;;;;;0.40;0.20;;;5.00;1.40;;;5.56;100.00;94652.73;645909;216;31491;-75
2021/12/01 03:13:45;;;;;;;0.40;0.20;;;5.00;1.40;;;5.58;100.00;94661.00;619435;226;31920;-75
2021/12/01 03:16:27;;;;;;;0.40;0.20;;;5.00;1.40;;;5.53;100.00;94653.84;647161;212;31525;-75
2021/12/01 03:19:09;;;;;;;0.40;0.20;;;5.00;1.40;;;5.60;100.00;94654.15;619705;222;32247;-75
2021/12/01 03:21:50;;;;;;;0.40;0.20;;;5.10;1.40;;;5.67;100.00;94637.25;618026;226;31967;-75
2021/12/01 03:24:33;;;;;;;0.40;0.20;;;5.20;1.40;;;5.60;100.00;94645.97;646502;212;31896;-75
2021/12/01 03:27:14;;;;;;;0.40;0.20;;;5.10;1.40;;;5.53;100.00;94635.73;646486;216;32251;-75
2021/12/01 03:29:59;;;;;;;0.40;0.30;;;5.00;1.40;;;5.49;100.00;94633.37;646112;216;31504;-75
2021/12/01 03:32:41;;;;;;;0.50;0.20;;;5.00;1.40;;;5.53;100.00;94630.47;647101;216;31541;-75
2021/12/01 03:35:51;;;;;;;0.40;0.20;;;5.00;1.40;;;5.57;100.00;94621.04;647727;216;31547;-75
2021/12/01 03:38:33;;;;;;;0.40;0.20;;;5.10;1.40;;;5.57;100.00;94619.05;645574;213;31773;-75
2021/12/01 03:41:15;;;;;;;0.40;0.30;;;5.00;1.40;;;5.65;100.00;94630.40;646472;212;33082;-76
2021/12/01 03:43:57;;;;;;;0.40;0.20;;;5.10;1.40;;;5.64;100.00;94619.83;646829;216;42103;-75
2021/12/01 03:46:38;;;;;;;0.40;0.20;;;5.10;1.40;;;5.68;100.00;94607.66;647124;216;31608;-75
2021/12/01 03:49:20;;;;;;;0.40;0.20;;;5.10;1.40;;;5.66;100.00;94606.95;619653;226;43517;-75
2021/12/01 03:52:02;;;;;;;0.40;0.20;;;5.10;1.40;;;5.67;100.00;94604.03;646579;216;31503;-76
2021/12/01 03:54:44;;;;;;;0.40;0.30;;;5.10;1.40;;;5.70;100.00;94600.91;646440;212;42667;-76
2021/12/01 03:57:27;;;;;;;0.40;0.20;;;5.10;1.40;;;5.68;100.00;94607.06;647372;216;31494;-75
2021/12/01 04:00:11;;;;;;;0.40;0.20;;;5.10;1.40;;;5.69;100.00;94591.78;646415;216;31693;-76
2021/12/01 04:02:53;;;;;;;0.93;0.30;;;5.10;1.40;;;5.69;100.00;94586.41;646976;216;31509;-75
2021/12/01 04:05:34;;;;;;;0.40;0.20;;;5.10;1.40;;;5.70;100.00;94581.33;613708;222;32165;-77
2021/12/01 04:08:16;;;;;;;0.40;0.20;;;5.10;1.40;;;5.79;100.00;94583.30;647035;216;31648;-76
2021/12/01 04:10:58;;;;;;;0.40;0.20;;;5.20;1.40;;;5.79;100.00;94586.15;646825;216;31467;-75
2021/12/01 04:13:40;;;;;;;0.40;0.20;;;5.20;1.40;;;5.73;100.00;94584.94;647255;216;31524;-75
2021/12/01 04:16:21;;;;;;;0.40;0.20;;;5.10;1.40;;;5.77;100.00;94583.91;646270;216;31707;-76
2021/12/01 04:19:03;;;;;;;0.40;0.20;;;5.10;1.40;;;5.74;100.00;94569.92;646332;212;31579;-76
2021/12/01 04:21:45;;;;;;;0.50;0.30;;;5.10;1.40;;;5.74;100.00;94569.64;646613;216;31602;-75
2021/12/01 04:24:27;;;;;;;0.40;0.20;;;5.10;1.40;;;5.84;100.00;94569.27;647186;212;31726;-76
2021/12/01 04:27:10;;;;;;;0.40;0.20;;;5.20;1.40;;;5.80;100.00;94555.53;646265;212;31603;-76
2021/12/01 04:29:50;;;;;;;0.40;0.20;;;5.20;1.40;;;5.81;100.00;94563.03;620590;226;31973;-75
2021/12/01 04:32:32;;;;;;;0.40;0.20;;;5.10;1.40;;;5.77;100.00;94555.95;648024;216;31775;-76
2021/12/01 04:35:53;;;;;;;0.40;0.20;;;5.10;1.40;;;5.74;100.00;94548.72;647140;216;31523;-75
2021/12/01 04:38:33;;;;;;;0.40;0.20;;;5.10;1.40;;;5.73;100.00;94549.86;647953;216;31571;-75
2021/12/01 04:41:18;;;;;;;0.40;0.20;;;5.20;1.40;;;5.78;100.00;94544.11;645675;216;42153;-75
2021/12/01 04:44:00;;;;;;;0.40;0.20;;;5.20;1.40;;;5.77;100.00;94541.17;647454;212;42119;-75
2021/12/01 04:46:44;;;;;;;0.40;0.20;;;5.20;1.40;;;5.80;100.00;94541.70;646838;216;42253;-75
2021/12/01 04:49:25;;;;;;;0.40;0.20;;;5.20;1.40;;;5.85;100.00;94532.14;648207;216;42135;-75
2021/12/01 04:52:07;;;;;;;0.40;0.20;;;5.20;1.40;;;5.71;100.00;94527.69;646793;216;42555;-77
2021/12/01 04:54:49;;;;;;;0.40;0.20;;;5.10;1.40;;;5.80;100.00;94532.84;646564;216;31594;-76
2021/12/01 04:57:31;;;;;;;0.40;0.20;;;5.10;1.40;;;5.81;100.00;94535.06;618616;226;32499;-76
2021/12/01 05:00:13;;;;;;;0.40;0.20;;;5.20;1.40;;;5.80;100.00;94536.44;631745;222;31695;-75
2021/12/01 05:02:58;;;;;;;0.40;0.20;;;5.20;1.40;;;5.79;100.00;94534.19;647748;212;31741;-76
2021/12/01 05:05:40;;;;;;;0.40;0.20;;;5.30;1.40;;;5.77;100.00;94530.19;647523;216;31500;-76
2021/12/01 05:08:22;;;;;;;0.40;0.20;;;5.30;1.40;;;5.68;100.00;94524.95;647871;216;31481;-76
2021/12/01 05:11:03;;;;;;;0.40;0.22;;;5.20;1.40;;;5.64;100.00;94514.33;647253;212;31908;-75
2021/12/01 05:13:45;;;;;;;0.40;0.20;;;5.10;1.40;;;5.63;100.00;94500.90;619861;226;31928;-76
2021/12/01 05:16:27;;;;;;;0.40;0.20;;;5.10;1.40;;;5.59;100.00;94504.79;647358;212;31497;-75
2021/12/01 05:19:08;;;;;;;0.40;0.20;;;5.10;1.40;;;5.66;100.00;94495.91;647424;216;31555;-76
2021/12/01 05:21:50;;;;;;;0.40;0.20;;;5.10;1.40;;;5.62;100.00;94491.67;647055;212;32227;-76
2021/12/01 05:24:32;;;;;;;0.75;0.40;;;5.10;1.40;;;5.65;100.00;94492.05;647628;216;31471;-76
2021/12/01 05:27:14;;;;;;;0.40;0.30;;;5.10;1.40;;;5.52;100.00;94489.95;620499;222;42636;-75
2021/12/01 05:29:55;;;;;;;0.40;0.20;;;5.00;1.40;;;5.37;100.00;94496.67;646681;216;31505;-75
2021/12/01 05:32:37;;;;;;;0.40;0.20;;;4.90;1.40;;;5.47;100.00;94486.44;630736;222;31672;-75
2021/12/01 05:35:51;;;;;;;1.30;0.40;;;5.00;1.40;;;5.43;100.00;94498.21;647766;216;31596;-75
2021/12/01 05:38:33;;;;;;;0.60;0.30;;;5.00;1.40;;;5.41;100.00;94482.23;646723;212;31487;-75
2021/12/01 05:41:14;;;;;;;0.40;0.20;;;5.00;1.40;;;5.49;100.00;94474.19;619160;226;31877;-75
2021/12/01 05:44:05;;;;;;;0.85;0.30;;;5.00;1.40;;;5.37;100.00;94471.91;646002;212;31493;-79
2021/12/01 05:46:49;;;;;;;0.40;0.30;;;4.90;1.40;;;5.24;100.00;94482.29;647423;216;31469;-75
2021/12/01 05:49:30;;;;;;;0.40;0.20;;;4.80;1.40;;;5.14;100.00;94480.77;642764;215;43072;-75
2021/12/01 05:52:12;;;;;;;0.40;0.20;;;4.60;1.40;;;5.06;100.00;94464.84;645532;212;31509;-74
2021/12/01 05:54:54;;;;;;;0.40;0.20;;;4.60;1.40;;;5.04;100.00;94466.91;648007;216;32022;-73
2021/12/01 05:57:36;;;;;;;0.40;0.30;;;4.50;1.40;;;4.98;100.00;94455.21;647674;216;42230;-74
2021/12/01 06:00:17;;;;;;;0.90;0.30;;;4.60;1.40;;;5.04;100.00;94445.91;645204;216;31545;-75
2021/12/01 06:03:00;;;;;;;0.40;0.20;;;4.60;1.40;;;5.00;100.00;94442.07;615917;226;31833;-75
2021/12/01 06:05:43;;;;;;;0.40;0.20;;;4.60;1.40;;;5.01;100.00;94431.58;638354;212;31723;-75
2021/12/01 06:08:24;;;;;;;0.40;0.20;;;4.50;1.40;;;4.98;100.00;94423.90;619367;222;32142;-75
2021/12/01 06:11:08;;;;;;;0.40;0.20;;;4.50;1.40;;;5.10;100.00;94423.89;647510;212;32047;-75
2021/12/01 06:13:52;;;;;;;0.40;0.20;;;4.60;1.40;;;5.01;100.00;94414.55;648637;216;31516;-75
2021/12/01 06:16:32;;;;;;;0.40;0.20;;;4.60;1.40;;;5.03;100.00;94417.03;647092;216;31591;-74
2021/12/01 06:19:13;;;;;;;0.40;0.20;;;4.60;1.40;;;5.03;100.00;94410.25;647000;216;31492;-73
2021/12/01 06:21:55;;;;;;;0.40;0.20;;;4.60;1.40;;;5.16;100.00;94403.62;647712;216;31535;-74
2021/12/01 06:24:40;;;;;;;0.40;0.20;;;4.80;1.40;;;5.21;100.00;94401.69;646844;212;31521;-74
2021/12/01 06:27:23;;;;;;;0.40;0.20;;;4.80;1.40;;;5.16;100.00;94402.67;620834;226;31907;-74
2021/12/01 06:30:04;;;;;;;0.40;0.20;;;4.80;1.40;;;5.18;100.00;94399.34;646224;216;31470;-75
2021/12/01 06:35:54;;;;;;;0.90;0.90;;;4.90;1.40;;;5.24;100.00;94392.98;647409;216;42210;-74
2021/12/01 06:38:38;;;;;;;0.40;0.20;;;4.90;1.40;;;5.21;100.00;94390.63;647033;216;31636;-75
2021/12/01 06:41:18;;;;;;;0.40;0.20;;;4.80;1.40;;;5.25;100.00;94390.16;646533;212;31738;-75
2021/12/01 06:43:59;;;;;;;0.40;0.20;;;4.80;1.40;;;5.27;100.00;94392.49;619124;222;43077;-73
2021/12/01 06:46:41;;;;;;;0.40;0.25;;;4.90;1.40;;;5.17;100.00;94383.62;646618;216;31516;-75
2021/12/01 06:49:23;;;;;;;0.40;0.20;;;4.70;1.40;;;5.23;100.00;94376.77;647002;216;31530;-75
2021/12/01 06:52:08;;;;;;;0.40;0.20;;;4.90;1.40;;;5.31;100.00;94367.69;646310;213;31500;-75
2021/12/01 06:54:50;;;;;;;0.40;0.20;;;5.00;1.40;;;5.36;100.00;94368.36;632827;221;31701;-75
2021/12/01 06:57:32;;;;;;;0.40;0.20;;;5.00;1.40;;;5.34;100.00;94365.55;647037;216;32877;-75
2021/12/01 07:00:14;;;;;;;0.40;0.20;;;5.00;1.40;;;5.47;100.00;94366.27;646667;212;42641;-76
2021/12/01 07:02:56;;;;;;;0.40;0.20;;;5.10;1.40;;;5.36;100.00;94360.09;646562;212;31576;-76
2021/12/01 07:05:37;;;;;;;0.40;0.30;;;4.90;1.40;;;5.36;100.00;94368.31;646564;212;32986;-76
2021/12/01 07:08:19;;;;;;;0.40;0.30;;;4.90;1.40;;;5.45;100.00;94368.63;646001;212;42852;-76
2021/12/01 07:11:01;;;;;;;0.40;0.40;;;5.10;1.40;;;5.47;100.00;94374.03;651790;212;23480;-75
2021/12/01 07:13:43;;;;;;;0.40;0.20;;;5.10;1.40;;;5.51;100.00;94372.28;647932;212;31510;-76
2021/12/01 07:16:25;;;;;;;0.40;0.20;;;5.10;1.40;;;5.52;100.00;94377.80;646775;216;32141;-76
2021/12/01 07:19:06;;;;;;;0.40;0.20;;;5.10;1.40;;;5.57;100.00;94370.70;645445;212;32154;-75
2021/12/01 07:21:49;;;;;;;0.60;0.30;;;5.10;1.40;;;5.58;100.00;94370.01;646859;216;31528;-77
2021/12/01 07:24:37;;;;;;;0.30;0.20;;;5.10;1.40;;;5.68;100.00;94370.47;645246;212;31511;-75
2021/12/01 07:27:18;;;;;;;0.40;0.30;;;5.20;1.40;;;5.71;100.00;94359.69;619115;222;31864;-77
2021/12/01 07:30:06;;;;;;;0.60;0.40;;;5.20;1.40;;;5.70;100.00;94356.70;647164;216;32095;-78
2021/12/01 07:32:49;;;;;;;0.40;0.27;;;5.20;1.40;;;5.74;100.00;94356.67;619343;222;31858;-79
2021/12/01 07:35:54;;;;;;;0.40;0.20;;;5.20;1.40;;;5.74;100.00;94349.83;647285;216;31523;-78
2021/12/01 07:38:35;;;;;;;0.40;0.20;;;5.20;1.40;;;5.72;100.00;94334.46;647854;216;41841;-78
2021/12/01 07:41:18;;;;;;;0.40;0.30;;;5.30;1.40;;;5.70;100.00;94335.19;646353;212;42104;-78
2021/12/01 07:43:59;;;;;;;1.70;0.40;;;5.20;1.40;;;5.71;100.00;94326.89;625641;222;23597;-78
2021/12/01 07:46:42;;;;;;;0.40;0.20;;;5.20;1.40;;;5.71;100.00;94323.92;647476;216;31506;-78
2021/12/01 07:49:30;;;;;;;0.60;0.30;;;5.10;1.40;;;5.70;100.00;94326.00;645828;216;42996;-75
2021/12/01 07:52:13;;;;;;;0.40;0.30;;;5.20;1.40;;;5.72;100.00;94328.05;619103;226;31913;-78
2021/12/01 07:54:57;;;;;;;0.40;0.20;;;5.20;1.40;;;5.74;100.00;94315.48;645558;216;31484;-76
2021/12/01 07:57:39;;;;;;;0.40;0.20;;;5.20;1.40;;;5.71;100.00;94325.22;618837;226;32397;-76
2021/12/01 08:00:24;;;;;;;0.40;0.20;;;5.10;1.40;;;5.76;100.00;94318.71;646062;212;42408;-75
2021/12/01 08:03:06;;;;;;;0.40;0.20;;;5.20;1.40;;;5.84;100.00;94315.51;646204;216;31486;-75
2021/12/01 08:05:50;;;;;;;0.90;0.60;;;5.30;1.40;;;5.76;100.00;94317.05;647369;216;31507;-79
2021/12/01 08:08:32;;;;;;;0.40;0.20;;;5.20;1.40;;;5.80;100.00;94329.03;619451;226;31893;-79
2021/12/01 08:11:14;;;;;;;0.70;0.30;;;5.40;1.40;;;5.92;100.00;94302.18;646642;216;42100;-78
2021/12/01 08:13:57;;;;;;;0.40;0.20;;;5.40;1.40;;;5.94;100.00;94307.83;647879;212;31497;-80
2021/12/01 08:16:39;;;;;;;0.40;0.40;;;5.50;1.40;;;5.91;100.00;94305.52;648311;216;31502;-79
2021/12/01 08:19:27;;;;;;;0.40;0.22;;;5.40;1.40;;;6.00;100.00;94307.62;641549;215;31735;-75
2021/12/01 08:22:12;;;;;;;0.40;0.20;;;5.50;1.40;;;5.96;100.00;94295.23;646560;216;31491;-78
2021/12/01 08:24:59;;;;;;;0.40;0.30;;;5.50;1.40;;;6.00;100.00;94295.35;646305;216;31662;-76
2021/12/01 08:28:02;;;;;;;0.40;0.20;;;5.50;1.40;;;6.03;100.00;94277.30;621470;226;42477;-79
2021/12/01 08:30:46;;;;;;;0.40;0.20;;;5.50;1.40;;;6.17;100.00;94280.34;646691;212;32140;-78
2021/12/01 08:35:57;;;;;;;0.90;0.30;;;5.60;1.40;;;6.13;100.00;94273.03;646810;216;31634;-79
2021/12/01 08:38:45;;;;;;;0.40;0.20;;;5.60;1.40;;;6.19;100.00;94270.00;647064;212;42160;-75
2021/12/01 08:41:27;;;;;;;0.40;0.25;;;5.70;1.40;;;6.31;100.00;94273.33;645662;216;31479;-75
2021/12/01 08:44:12;;;;;;;0.40;0.20;;;5.80;1.40;;;7.21;100.00;94276.34;647261;216;42114;-76
2021/12/01 08:46:55;;;;;;;0.40;0.20;;;7.50;1.40;;;7.67;100.00;94270.78;647764;213;32247;-79
2021/12/01 08:49:40;;;;;;;0.50;0.30;;;7.90;1.40;;;8.13;100.00;94268.02;647564;216;31490;-80
2021/12/01 08:52:28;;;;;;;1.00;0.37;;;8.40;1.40;;;9.03;100.00;94269.37;644992;212;31503;-78
2021/12/01 08:55:09;;;;;;;0.40;0.30;;;9.20;1.40;;;9.55;100.00;94257.81;647319;216;31536;-75
2021/12/01 08:57:58;;;;;;;0.40;0.30;;;9.60;1.40;;;9.97;100.00;94255.91;619171;222;31817;-79
2021/12/01 09:00:44;;;;;;;0.70;0.30;;;10.10;1.40;;;9.96;100.00;94254.95;646317;216;31532;-76
2021/12/01 09:03:29;;;;;;;0.60;0.30;;;10.10;1.40;;;10.15;100.00;94253.55;647407;212;42166;-80
2021/12/01 09:06:17;;;;;;;0.50;0.30;;;10.30;1.40;;;10.96;100.00;94241.45;640180;212;32215;-76
2021/12/01 09:09:05;;;;;;;0.60;0.30;;;11.00;1.40;;;11.51;96.85;94249.21;647982;212;31691;-78
2021/12/01 09:11:52;;;;;;;0.40;0.20;;;11.30;1.40;;;11.01;94.14;94240.67;646522;216;31493;-76
2021/12/01 09:14:34;;;;;;;0.40;0.30;;;11.00;1.40;;;10.90;94.31;94243.98;645862;212;31492;-77
2021/12/01 09:17:16;;;;;;;0.40;0.30;;;10.60;1.40;;;11.44;93.76;94242.44;647175;216;31477;-78
2021/12/01 09:19:57;;;;;;;0.40;0.30;;;11.30;1.40;;;11.72;92.47;94243.98;619090;226;42451;-76
2021/12/01 09:22:39;;;;;;;0.40;0.30;;;11.30;1.40;;;11.20;88.51;94235.44;646096;215;31515;-76
2021/12/01 09:25:27;;;;;;;1.60;0.30;;;11.00;1.40;;;11.39;92.14;94232.87;643570;216;31475;-78
2021/12/01 09:28:14;;;;;;;0.60;0.30;;;10.50;1.40;;;11.53;95.57;94233.38;645957;216;32582;-76
2021/12/01 09:30:58;;;;;;;0.80;0.30;;;11.40;1.40;;;11.06;91.41;94243.91;620046;226;31942;-79
2021/12/01 09:35:53;;;;;;;0.40;0.30;;;10.70;1.40;;;11.52;91.91;94215.02;620404;222;31890;-78
2021/12/01 09:38:35;;;;;;;0.40;0.20;;;11.80;1.40;;;12.05;88.60;94210.86;620404;222;31817;-80
2021/12/01 09:41:19;;;;;;;0.50;0.30;;;11.50;1.40;;;11.12;90.09;94208.48;647107;212;31464;-76
2021/12/01 09:44:00;;;;;;;0.50;0.30;;;10.40;1.40;;;11.05;92.15;94202.92;646965;216;31475;-76
2021/12/01 09:46:51;;;;;;;0.40;0.30;;;9.40;1.40;;;10.19;100.00;94198.23;648588;212;31501;-80
2021/12/01 09:49:39;;;;;;;0.47;0.30;;;10.40;1.40;;;11.31;90.14;94181.48;645866;212;42114;-76
2021/12/01 09:52:27;;;;;;;0.40;0.20;;;11.60;1.40;;;12.33;83.07;94181.05;646400;216;42210;-79
2021/12/01 09:55:12;;;;;;;0.40;0.30;;;11.90;1.40;;;12.42;83.39;94187.70;647240;216;42109;-78
2021/12/01 09:58:05;;;;;;;0.50;0.30;;;12.40;1.40;;;11.57;81.82;94185.41;647034;212;31577;-76
2021/12/01 10:00:48;;;;;;;0.60;0.30;;;9.70;1.40;;;10.31;91.08;94169.13;646978;212;42686;-79
2021/12/01 10:03:31;;;;;;;0.40;0.30;;;9.10;1.40;;;11.38;88.32;94161.67;647044;212;31487;-79
2021/12/01 10:06:20;;;;;;;0.50;0.30;;;11.70;1.40;;;12.68;79.15;94157.41;640098;216;42269;-76
2021/12/01 10:09:08;;;;;;;0.40;0.22;;;12.40;1.40;;;11.90;79.97;94155.82;646967;216;31487;-78
2021/12/01 10:11:49;;;;;;;0.65;0.30;;;10.00;1.40;;;10.30;88.16;94151.17;647855;212;31497;-79
2021/12/01 10:14:37;;;;;;;0.50;0.30;;;9.20;1.40;;;9.83;94.81;94144.38;645740;216;42162;-76
2021/12/01 10:17:32;;;;;;;0.30;0.30;;;9.00;1.40;;;9.98;94.79;94144.68;628316;225;22795;-80
2021/12/01 10:20:16;;;;;;;0.40;0.30;;;9.10;1.40;;;9.49;96.30;94136.95;646567;216;32043;-75
2021/12/01 10:23:07;;;;;;;0.50;0.28;;;8.80;1.40;;;9.53;100.00;94122.84;646460;216;31558;-78
2021/12/01 10:25:56;;;;;;;0.40;0.20;;;8.90;1.40;;;9.73;100.00;94118.23;648241;212;42112;-80
2021/12/01 10:31:18;;;;;;;0.45;0.20;;;8.80;1.40;;;9.45;100.00;94102.82;618432;222;31859;-75
2021/12/01 10:35:53;;;;;;;0.40;0.20;;;8.60;1.40;;;9.48;98.76;94087.03;620867;223;31806;-81
2021/12/01 10:38:40;;;;;;;0.40;0.30;;;8.80;1.40;;;9.75;97.11;94078.47;646866;212;42489;-76
2021/12/01 10:41:28;;;;;;;0.52;0.30;;;8.90;1.40;;;9.74;99.39;94076.63;648219;212;32658;-81
2021/12/01 10:44:13;;;;;;;0.40;0.20;;;8.80;1.40;;;9.54;99.38;94075.05;647203;212;42097;-75
2021/12/01 10:46:55;;;;;;;0.50;0.30;;;8.80;1.40;;;9.55;100.00;94063.09;646430;216;42038;-76
2021/12/01 10:52:14;;;;;;;0.50;0.20;;;8.80;1.40;;;9.63;100.00;94028.53;646515;212;42107;-75
2021/12/01 10:55:10;;;;;;;0.40;0.20;;;8.90;1.40;;;9.70;100.00;94024.87;620294;222;31821;-79
2021/12/01 10:57:59;;;;;;;0.40;0.30;;;8.80;1.40;;;9.37;100.00;94004.61;647258;216;42089;-76
2021/12/01 11:00:46;;;;;;;0.40;0.20;;;8.70;1.40;;;9.34;100.00;94009.64;631373;217;31775;-76
2021/12/01 11:03:32;;;;;;;0.40;0.20;;;8.60;1.40;;;9.16;100.00;94005.17;620780;222;31865;-81
2021/12/01 11:06:19;;;;;;;0.60;0.30;;;8.50;1.40;;;9.20;100.00;94001.89;613492;224;32332;-76
2021/12/01 11:08:58;;;;;;;0.70;0.30;;;8.40;1.40;;;9.20;100.00;93997.39;646974;216;33154;-77
2021/12/01 11:11:44;;;;;;;0.60;0.30;;;8.50;1.40;;;9.34;100.00;93993.62;645134;212;31509;-76
2021/12/01 11:14:29;;;;;;;0.40;0.20;;;8.70;1.40;;;9.47;100.00;93988.14;647580;216;31501;-78
2021/12/01 11:17:09;;;;;;;0.57;0.30;;;8.70;1.40;;;9.38;100.00;93989.08;646046;216;32594;-75
2021/12/01 11:22:26;;;;;;;0.60;0.30;;;8.80;1.40;;;9.42;100.00;93987.11;646572;216;42142;-75
2021/12/01 11:25:19;;;;;;;0.40;0.20;;;8.70;1.40;;;9.23;100.00;93977.71;619562;224;31835;-80
2021/12/01 11:28:03;;;;;;;0.60;0.30;;;8.60;1.40;;;9.16;100.00;93966.55;617670;222;31912;-78
2021/12/01 11:30:47;;;;;;;0.40;0.30;;;8.60;1.40;;;9.31;100.00;93959.39;634351;222;31675;-80
2021/12/01 11:35:51;;;;;;;0.40;0.20;;;8.70;1.40;;;9.42;100.00;93954.81;619795;226;31837;-75
2021/12/01 11:38:36;;;;;;;0.40;0.20;;;8.70;1.40;;;9.54;100.00;93945.31;645931;212;32223;-76
2021/12/01 11:41:17;;;;;;;0.80;0.30;;;8.80;1.40;;;9.77;100.00;93940.30;646336;216;32081;-76
2021/12/01 11:43:59;;;;;;;0.40;0.20;;;9.10;1.40;;;10.23;100.00;93941.97;619279;222;31885;-75
2021/12/01 11:46:48;;;;;;;0.40;0.20;;;9.50;1.40;;;10.06;100.00;93926.67;647106;216;32639;-79
2021/12/01 11:49:36;;;;;;;0.40;0.20;;;9.20;1.40;;;9.98;100.00;93914.10;646516;212;31554;-76
2021/12/01 11:52:19;;;;;;;0.30;0.30;;;9.20;1.40;;;10.24;100.00;93922.56;646261;212;31516;-76
2021/12/01 11:55:06;;;;;;;0.40;0.20;;;9.50;1.40;;;10.01;100.00;93909.91;648545;212;42113;-79
2021/12/01 11:57:54;;;;;;;0.50;0.30;;;9.20;1.40;;;9.90;100.00;93894.70;646254;216;42118;-76
2021/12/01 12:00:45;;;;;;;0.40;0.20;;;9.00;1.40;;;9.60;100.00;93889.91;647692;212;42156;-80
2021/12/01 12:03:27;;;;;;;0.40;0.20;;;8.90;1.40;;;9.53;100.00;93876.48;619970;222;42480;-79
2021/12/01 12:06:20;;;;;;;0.40;0.20;;;8.80;1.40;;;9.47;100.00;93883.33;640308;212;42376;-75
2021/12/01 12:09:07;;;;;;;0.40;0.20;;;8.70;1.40;;;9.50;100.00;93867.08;647196;212;31525;-79
2021/12/01 12:12:11;;;;;;;0.40;0.30;;;8.70;1.40;;;9.52;100.00;93858.01;647993;212;31629;-79
2021/12/01 12:14:59;;;;;;;0.40;0.20;;;8.70;1.40;;;9.38;100.00;93847.38;645984;216;31509;-75
2021/12/01 12:17:40;;;;;;;0.40;0.20;;;8.70;1.40;;;9.53;100.00;93842.97;631940;220;31633;-75
2021/12/01 12:20:31;;;;;;;0.40;0.20;;;8.80;1.40;;;9.63;100.00;93838.70;646039;212;31487;-76
2021/12/01 12:23:10;;;;;;;0.60;0.30;;;8.90;1.40;;;9.89;100.00;93823.75;646422;216;31499;-75